sensor_id;sensor_type;location;lat;lon;timestamp;P1;durP1;ratioP1;P2;durP2;ratioP2
15331;SDS011;7766;51.534;6.722;2022-08-25T00:00:05;5.93;;;3.53;;
15331;SDS011;7766;51.534;6.722;2022-08-25T00:01:14;5.13;;;3.00;;
15331;SDS011;7766;51.534;6.722;2022-08-25T00:02:18;4.38;;;3.40;;
15331;SDS011;7766;51.534;6.722;2022-08-25T00:03:19;4.95;;;3.15;;
15331;SDS011;7766;51.534;6.722;2022-08-25T00:04:20;6.22;;;3.88;;
15331;SDS011;7766;51.534;6.722;2022-08-25T00:05:23;5.80;;;3.85;;
15331;SDS011;7766;51.534;6.722;2022-08-25T00:06:26;6.22;;;3.35;;
15331;SDS011;7766;51.534;6.722;2022-08-25T00:07:27;5.88;;;3.03;;
15331;SDS011;7766;51.534;6.722;2022-08-25T00:08:29;7.78;;;3.58;;
15331;SDS011;7766;51.534;6.722;2022-08-25T00:09:30;5.05;;;3.13;;
15331;SDS011;7766;51.534;6.722;2022-08-25T00:10:33;5.95;;;3.17;;
15331;SDS011;7766;51.534;6.722;2022-08-25T00:11:37;4.47;;;3.30;;
15331;SDS011;7766;51.534;6.722;2022-08-25T00:12:39;6.80;;;3.35;;
15331;SDS011;7766;51.534;6.722;2022-08-25T00:13:41;6.07;;;3.78;;
15331;SDS011;7766;51.534;6.722;2022-08-25T00:14:43;7.25;;;3.38;;
15331;SDS011;7766;51.534;6.722;2022-08-25T00:15:44;6.80;;;4.22;;
15331;SDS011;7766;51.534;6.722;2022-08-25T00:16:46;16.10;;;13.30;;
15331;SDS011;7766;51.534;6.722;2022-08-25T00:17:47;19.10;;;15.40;;
15331;SDS011;7766;51.534;6.722;2022-08-25T00:18:50;12.60;;;10.60;;
15331;SDS011;7766;51.534;6.722;2022-08-25T00:19:55;7.30;;;5.82;;
15331;SDS011;7766;51.534;6.722;2022-08-25T00:20:56;8.02;;;3.60;;
15331;SDS011;7766;51.534;6.722;2022-08-25T00:21:57;6.13;;;3.83;;
15331;SDS011;7766;51.534;6.722;2022-08-25T00:23:00;6.43;;;3.58;;
15331;SDS011;7766;51.534;6.722;2022-08-25T00:24:01;5.68;;;3.63;;
15331;SDS011;7766;51.534;6.722;2022-08-25T00:25:03;4.15;;;3.42;;
15331;SDS011;7766;51.534;6.722;2022-08-25T00:26:04;5.43;;;3.63;;
15331;SDS011;7766;51.534;6.722;2022-08-25T00:27:06;5.68;;;3.17;;
15331;SDS011;7766;51.534;6.722;2022-08-25T00:28:07;5.32;;;3.78;;
15331;SDS011;7766;51.534;6.722;2022-08-25T00:29:09;4.97;;;3.53;;
15331;SDS011;7766;51.534;6.722;2022-08-25T00:30:10;8.27;;;3.67;;
15331;SDS011;7766;51.534;6.722;2022-08-25T00:31:15;7.82;;;3.45;;
15331;SDS011;7766;51.534;6.722;2022-08-25T00:32:18;5.53;;;3.42;;
15331;SDS011;7766;51.534;6.722;2022-08-25T00:33:20;3.00;;;2.80;;
15331;SDS011;7766;51.534;6.722;2022-08-25T00:34:22;7.78;;;3.58;;
15331;SDS011;7766;51.534;6.722;2022-08-25T00:35:26;4.43;;;3.00;;
15331;SDS011;7766;51.534;6.722;2022-08-25T00:36:27;4.07;;;3.30;;
15331;SDS011;7766;51.534;6.722;2022-08-25T00:37:28;4.50;;;3.38;;
15331;SDS011;7766;51.534;6.722;2022-08-25T00:38:29;4.75;;;3.15;;
15331;SDS011;7766;51.534;6.722;2022-08-25T00:39:30;6.53;;;3.25;;
15331;SDS011;7766;51.534;6.722;2022-08-25T00:40:32;6.53;;;3.33;;
15331;SDS011;7766;51.534;6.722;2022-08-25T00:41:34;5.30;;;3.50;;
15331;SDS011;7766;51.534;6.722;2022-08-25T00:42:35;4.93;;;3.22;;
15331;SDS011;7766;51.534;6.722;2022-08-25T00:44:41;4.85;;;2.80;;
15331;SDS011;7766;51.534;6.722;2022-08-25T00:45:42;4.25;;;3.17;;
15331;SDS011;7766;51.534;6.722;2022-08-25T00:46:45;3.55;;;3.10;;
15331;SDS011;7766;51.534;6.722;2022-08-25T00:47:48;4.95;;;3.03;;
15331;SDS011;7766;51.534;6.722;2022-08-25T00:48:54;3.85;;;2.78;;
15331;SDS011;7766;51.534;6.722;2022-08-25T00:49:59;4.55;;;3.00;;
15331;SDS011;7766;51.534;6.722;2022-08-25T00:51:03;6.45;;;3.90;;
15331;SDS011;7766;51.534;6.722;2022-08-25T00:52:21;4.65;;;3.40;;
15331;SDS011;7766;51.534;6.722;2022-08-25T00:53:29;5.72;;;3.15;;
15331;SDS011;7766;51.534;6.722;2022-08-25T00:54:33;5.18;;;3.15;;
15331;SDS011;7766;51.534;6.722;2022-08-25T00:55:48;5.20;;;3.13;;
15331;SDS011;7766;51.534;6.722;2022-08-25T00:56:49;4.15;;;3.10;;
15331;SDS011;7766;51.534;6.722;2022-08-25T00:57:53;3.47;;;2.95;;
15331;SDS011;7766;51.534;6.722;2022-08-25T00:59:05;6.38;;;3.03;;
15331;SDS011;7766;51.534;6.722;2022-08-25T01:00:14;5.05;;;3.28;;
15331;SDS011;7766;51.534;6.722;2022-08-25T01:01:19;3.67;;;3.20;;
15331;SDS011;7766;51.534;6.722;2022-08-25T01:02:20;5.68;;;3.15;;
15331;SDS011;7766;51.534;6.722;2022-08-25T01:03:23;4.15;;;2.78;;
15331;SDS011;7766;51.534;6.722;2022-08-25T01:04:25;3.20;;;2.50;;
15331;SDS011;7766;51.534;6.722;2022-08-25T01:05:27;5.72;;;3.30;;
15331;SDS011;7766;51.534;6.722;2022-08-25T01:06:29;4.88;;;2.90;;
15331;SDS011;7766;51.534;6.722;2022-08-25T01:07:35;3.70;;;3.28;;
15331;SDS011;7766;51.534;6.722;2022-08-25T01:08:37;6.22;;;3.45;;
15331;SDS011;7766;51.534;6.722;2022-08-25T01:09:38;5.38;;;2.80;;
15331;SDS011;7766;51.534;6.722;2022-08-25T01:10:42;4.55;;;3.28;;
15331;SDS011;7766;51.534;6.722;2022-08-25T01:11:44;5.63;;;3.03;;
15331;SDS011;7766;51.534;6.722;2022-08-25T01:12:46;5.75;;;3.15;;
15331;SDS011;7766;51.534;6.722;2022-08-25T01:13:50;3.67;;;3.38;;
15331;SDS011;7766;51.534;6.722;2022-08-25T01:14:53;3.83;;;3.22;;
15331;SDS011;7766;51.534;6.722;2022-08-25T01:15:56;4.22;;;2.80;;
15331;SDS011;7766;51.534;6.722;2022-08-25T01:16:59;5.38;;;3.10;;
15331;SDS011;7766;51.534;6.722;2022-08-25T01:18:00;5.32;;;3.13;;
15331;SDS011;7766;51.534;6.722;2022-08-25T01:19:02;7.32;;;3.30;;
15331;SDS011;7766;51.534;6.722;2022-08-25T01:20:05;5.53;;;3.22;;
15331;SDS011;7766;51.534;6.722;2022-08-25T01:21:06;6.47;;;3.20;;
15331;SDS011;7766;51.534;6.722;2022-08-25T01:22:07;3.72;;;3.10;;
15331;SDS011;7766;51.534;6.722;2022-08-25T01:23:10;4.82;;;3.38;;
15331;SDS011;7766;51.534;6.722;2022-08-25T01:24:13;5.07;;;3.00;;
15331;SDS011;7766;51.534;6.722;2022-08-25T01:25:42;3.47;;;2.80;;
15331;SDS011;7766;51.534;6.722;2022-08-25T01:26:51;3.47;;;2.88;;
15331;SDS011;7766;51.534;6.722;2022-08-25T01:27:52;6.13;;;3.30;;
15331;SDS011;7766;51.534;6.722;2022-08-25T01:28:53;7.30;;;3.35;;
15331;SDS011;7766;51.534;6.722;2022-08-25T01:30:14;3.75;;;3.08;;
15331;SDS011;7766;51.534;6.722;2022-08-25T01:31:15;5.13;;;2.70;;
15331;SDS011;7766;51.534;6.722;2022-08-25T01:32:16;5.40;;;3.40;;
15331;SDS011;7766;51.534;6.722;2022-08-25T01:33:17;5.57;;;3.30;;
15331;SDS011;7766;51.534;6.722;2022-08-25T01:34:19;4.88;;;3.42;;
15331;SDS011;7766;51.534;6.722;2022-08-25T01:35:21;6.22;;;2.97;;
15331;SDS011;7766;51.534;6.722;2022-08-25T01:36:23;3.80;;;2.90;;
15331;SDS011;7766;51.534;6.722;2022-08-25T01:37:25;4.63;;;3.30;;
15331;SDS011;7766;51.534;6.722;2022-08-25T01:38:26;5.22;;;3.17;;
15331;SDS011;7766;51.534;6.722;2022-08-25T01:39:28;3.80;;;3.10;;
15331;SDS011;7766;51.534;6.722;2022-08-25T01:40:33;4.50;;;3.20;;
15331;SDS011;7766;51.534;6.722;2022-08-25T01:44:10;6.30;;;3.40;;
15331;SDS011;7766;51.534;6.722;2022-08-25T01:45:11;8.90;;;3.67;;
15331;SDS011;7766;51.534;6.722;2022-08-25T01:46:13;4.00;;;3.25;;
15331;SDS011;7766;51.534;6.722;2022-08-25T01:47:15;5.68;;;3.55;;
15331;SDS011;7766;51.534;6.722;2022-08-25T01:48:17;5.13;;;3.17;;
15331;SDS011;7766;51.534;6.722;2022-08-25T01:49:18;5.07;;;3.10;;
15331;SDS011;7766;51.534;6.722;2022-08-25T01:50:19;4.22;;;3.28;;
15331;SDS011;7766;51.534;6.722;2022-08-25T01:51:22;3.53;;;3.17;;
15331;SDS011;7766;51.534;6.722;2022-08-25T01:52:29;5.45;;;3.15;;
15331;SDS011;7766;51.534;6.722;2022-08-25T01:53:35;7.05;;;3.38;;
15331;SDS011;7766;51.534;6.722;2022-08-25T01:54:36;6.88;;;2.90;;
15331;SDS011;7766;51.534;6.722;2022-08-25T01:55:38;4.43;;;3.10;;
15331;SDS011;7766;51.534;6.722;2022-08-25T01:56:51;4.10;;;3.08;;
15331;SDS011;7766;51.534;6.722;2022-08-25T01:57:52;3.50;;;3.15;;
15331;SDS011;7766;51.534;6.722;2022-08-25T01:58:54;4.25;;;2.97;;
15331;SDS011;7766;51.534;6.722;2022-08-25T01:59:56;6.90;;;3.22;;
15331;SDS011;7766;51.534;6.722;2022-08-25T02:00:58;6.40;;;3.58;;
15331;SDS011;7766;51.534;6.722;2022-08-25T02:02:01;3.88;;;3.10;;
15331;SDS011;7766;51.534;6.722;2022-08-25T02:03:03;4.22;;;3.58;;
15331;SDS011;7766;51.534;6.722;2022-08-25T02:04:03;4.63;;;3.22;;
15331;SDS011;7766;51.534;6.722;2022-08-25T02:05:05;5.22;;;3.45;;
15331;SDS011;7766;51.534;6.722;2022-08-25T02:06:09;5.93;;;2.90;;
15331;SDS011;7766;51.534;6.722;2022-08-25T02:07:11;5.75;;;3.33;;
15331;SDS011;7766;51.534;6.722;2022-08-25T02:08:13;4.45;;;2.90;;
15331;SDS011;7766;51.534;6.722;2022-08-25T02:09:15;3.55;;;3.20;;
15331;SDS011;7766;51.534;6.722;2022-08-25T02:10:17;4.15;;;3.13;;
15331;SDS011;7766;51.534;6.722;2022-08-25T02:11:18;6.00;;;3.55;;
15331;SDS011;7766;51.534;6.722;2022-08-25T02:12:20;4.85;;;3.53;;
15331;SDS011;7766;51.534;6.722;2022-08-25T02:13:21;4.97;;;3.72;;
15331;SDS011;7766;51.534;6.722;2022-08-25T02:14:23;4.68;;;3.47;;
15331;SDS011;7766;51.534;6.722;2022-08-25T02:15:24;7.32;;;3.90;;
15331;SDS011;7766;51.534;6.722;2022-08-25T02:16:27;5.13;;;3.45;;
15331;SDS011;7766;51.534;6.722;2022-08-25T02:17:31;4.68;;;3.22;;
15331;SDS011;7766;51.534;6.722;2022-08-25T02:18:34;5.22;;;3.38;;
15331;SDS011;7766;51.534;6.722;2022-08-25T02:19:35;4.28;;;3.55;;
15331;SDS011;7766;51.534;6.722;2022-08-25T02:20:37;10.13;;;3.53;;
15331;SDS011;7766;51.534;6.722;2022-08-25T02:21:38;5.72;;;3.60;;
15331;SDS011;7766;51.534;6.722;2022-08-25T02:22:39;7.22;;;3.67;;
15331;SDS011;7766;51.534;6.722;2022-08-25T02:23:40;3.88;;;3.45;;
15331;SDS011;7766;51.534;6.722;2022-08-25T02:24:41;6.22;;;3.30;;
15331;SDS011;7766;51.534;6.722;2022-08-25T02:25:42;4.95;;;4.00;;
15331;SDS011;7766;51.534;6.722;2022-08-25T02:26:43;5.30;;;3.50;;
15331;SDS011;7766;51.534;6.722;2022-08-25T02:27:45;5.63;;;3.42;;
15331;SDS011;7766;51.534;6.722;2022-08-25T02:28:46;4.70;;;3.60;;
15331;SDS011;7766;51.534;6.722;2022-08-25T02:29:49;4.40;;;3.60;;
15331;SDS011;7766;51.534;6.722;2022-08-25T02:30:51;4.57;;;3.80;;
15331;SDS011;7766;51.534;6.722;2022-08-25T02:31:52;5.18;;;3.63;;
15331;SDS011;7766;51.534;6.722;2022-08-25T02:32:53;6.55;;;3.70;;
15331;SDS011;7766;51.534;6.722;2022-08-25T02:33:54;8.40;;;3.45;;
15331;SDS011;7766;51.534;6.722;2022-08-25T02:34:56;5.53;;;3.20;;
15331;SDS011;7766;51.534;6.722;2022-08-25T02:35:57;4.18;;;3.55;;
15331;SDS011;7766;51.534;6.722;2022-08-25T02:37:00;4.70;;;3.53;;
15331;SDS011;7766;51.534;6.722;2022-08-25T02:38:01;4.43;;;3.72;;
15331;SDS011;7766;51.534;6.722;2022-08-25T02:39:04;5.85;;;3.60;;
15331;SDS011;7766;51.534;6.722;2022-08-25T02:40:07;4.38;;;3.25;;
15331;SDS011;7766;51.534;6.722;2022-08-25T02:41:10;8.23;;;4.07;;
15331;SDS011;7766;51.534;6.722;2022-08-25T02:42:14;5.35;;;3.30;;
15331;SDS011;7766;51.534;6.722;2022-08-25T02:43:15;5.15;;;3.90;;
15331;SDS011;7766;51.534;6.722;2022-08-25T02:44:16;6.35;;;3.55;;
15331;SDS011;7766;51.534;6.722;2022-08-25T02:45:17;6.97;;;3.45;;
15331;SDS011;7766;51.534;6.722;2022-08-25T02:46:19;5.25;;;3.40;;
15331;SDS011;7766;51.534;6.722;2022-08-25T02:47:21;5.22;;;4.13;;
15331;SDS011;7766;51.534;6.722;2022-08-25T02:48:23;4.05;;;3.58;;
15331;SDS011;7766;51.534;6.722;2022-08-25T02:49:24;5.53;;;3.95;;
15331;SDS011;7766;51.534;6.722;2022-08-25T02:50:25;6.45;;;3.72;;
15331;SDS011;7766;51.534;6.722;2022-08-25T02:51:26;4.55;;;3.40;;
15331;SDS011;7766;51.534;6.722;2022-08-25T02:52:28;5.38;;;4.05;;
15331;SDS011;7766;51.534;6.722;2022-08-25T02:53:30;4.55;;;3.50;;
15331;SDS011;7766;51.534;6.722;2022-08-25T02:54:32;5.78;;;3.50;;
15331;SDS011;7766;51.534;6.722;2022-08-25T02:55:34;5.80;;;3.80;;
15331;SDS011;7766;51.534;6.722;2022-08-25T02:56:35;9.10;;;4.13;;
15331;SDS011;7766;51.534;6.722;2022-08-25T02:57:36;5.07;;;3.67;;
15331;SDS011;7766;51.534;6.722;2022-08-25T02:58:37;5.30;;;3.63;;
15331;SDS011;7766;51.534;6.722;2022-08-25T02:59:39;6.68;;;3.83;;
15331;SDS011;7766;51.534;6.722;2022-08-25T03:00:40;3.90;;;3.13;;
15331;SDS011;7766;51.534;6.722;2022-08-25T03:01:41;6.35;;;4.13;;
15331;SDS011;7766;51.534;6.722;2022-08-25T03:02:43;4.25;;;3.65;;
15331;SDS011;7766;51.534;6.722;2022-08-25T03:03:44;5.45;;;3.78;;
15331;SDS011;7766;51.534;6.722;2022-08-25T03:04:46;5.38;;;4.13;;
15331;SDS011;7766;51.534;6.722;2022-08-25T03:05:47;5.45;;;3.70;;
15331;SDS011;7766;51.534;6.722;2022-08-25T03:06:48;5.80;;;3.58;;
15331;SDS011;7766;51.534;6.722;2022-08-25T03:07:49;6.35;;;3.95;;
15331;SDS011;7766;51.534;6.722;2022-08-25T03:08:51;6.22;;;3.72;;
15331;SDS011;7766;51.534;6.722;2022-08-25T03:09:52;4.93;;;4.22;;
15331;SDS011;7766;51.534;6.722;2022-08-25T03:10:53;6.45;;;4.45;;
15331;SDS011;7766;51.534;6.722;2022-08-25T03:11:54;6.65;;;4.00;;
15331;SDS011;7766;51.534;6.722;2022-08-25T03:12:55;5.55;;;4.00;;
15331;SDS011;7766;51.534;6.722;2022-08-25T03:13:56;5.22;;;3.88;;
15331;SDS011;7766;51.534;6.722;2022-08-25T03:14:57;5.88;;;4.00;;
15331;SDS011;7766;51.534;6.722;2022-08-25T03:15:59;6.95;;;3.85;;
15331;SDS011;7766;51.534;6.722;2022-08-25T03:17:01;5.93;;;3.85;;
15331;SDS011;7766;51.534;6.722;2022-08-25T03:18:02;10.02;;;3.78;;
15331;SDS011;7766;51.534;6.722;2022-08-25T03:19:04;6.57;;;4.05;;
15331;SDS011;7766;51.534;6.722;2022-08-25T03:20:05;6.32;;;3.97;;
15331;SDS011;7766;51.534;6.722;2022-08-25T03:21:07;5.60;;;4.22;;
15331;SDS011;7766;51.534;6.722;2022-08-25T03:22:10;5.28;;;4.25;;
15331;SDS011;7766;51.534;6.722;2022-08-25T03:23:11;6.30;;;3.90;;
15331;SDS011;7766;51.534;6.722;2022-08-25T03:24:12;7.38;;;4.30;;
15331;SDS011;7766;51.534;6.722;2022-08-25T03:25:14;6.10;;;4.10;;
15331;SDS011;7766;51.534;6.722;2022-08-25T03:26:34;5.47;;;3.85;;
15331;SDS011;7766;51.534;6.722;2022-08-25T03:27:54;4.47;;;3.97;;
15331;SDS011;7766;51.534;6.722;2022-08-25T03:28:55;6.82;;;4.10;;
15331;SDS011;7766;51.534;6.722;2022-08-25T03:29:57;5.28;;;4.13;;
15331;SDS011;7766;51.534;6.722;2022-08-25T03:31:00;4.70;;;3.53;;
15331;SDS011;7766;51.534;6.722;2022-08-25T03:32:02;6.45;;;4.25;;
15331;SDS011;7766;51.534;6.722;2022-08-25T03:33:04;4.85;;;3.53;;
15331;SDS011;7766;51.534;6.722;2022-08-25T03:34:05;5.95;;;3.47;;
15331;SDS011;7766;51.534;6.722;2022-08-25T03:35:06;6.25;;;4.13;;
15331;SDS011;7766;51.534;6.722;2022-08-25T03:36:08;6.38;;;4.03;;
15331;SDS011;7766;51.534;6.722;2022-08-25T03:37:13;6.03;;;3.72;;
15331;SDS011;7766;51.534;6.722;2022-08-25T03:38:14;4.72;;;3.63;;
15331;SDS011;7766;51.534;6.722;2022-08-25T03:39:16;4.00;;;3.60;;
15331;SDS011;7766;51.534;6.722;2022-08-25T03:40:18;5.28;;;3.90;;
15331;SDS011;7766;51.534;6.722;2022-08-25T03:41:23;6.15;;;4.00;;
15331;SDS011;7766;51.534;6.722;2022-08-25T03:42:27;6.18;;;3.90;;
15331;SDS011;7766;51.534;6.722;2022-08-25T03:43:28;6.57;;;4.13;;
15331;SDS011;7766;51.534;6.722;2022-08-25T03:44:30;6.38;;;4.60;;
15331;SDS011;7766;51.534;6.722;2022-08-25T03:45:32;6.20;;;4.03;;
15331;SDS011;7766;51.534;6.722;2022-08-25T03:46:36;7.57;;;4.00;;
15331;SDS011;7766;51.534;6.722;2022-08-25T03:47:44;8.15;;;3.58;;
15331;SDS011;7766;51.534;6.722;2022-08-25T03:48:49;13.65;;;4.88;;
15331;SDS011;7766;51.534;6.722;2022-08-25T03:49:51;4.93;;;4.38;;
15331;SDS011;7766;51.534;6.722;2022-08-25T03:50:52;4.60;;;3.78;;
15331;SDS011;7766;51.534;6.722;2022-08-25T03:51:53;5.25;;;3.80;;
15331;SDS011;7766;51.534;6.722;2022-08-25T03:52:55;6.97;;;4.00;;
15331;SDS011;7766;51.534;6.722;2022-08-25T03:53:56;6.22;;;3.70;;
15331;SDS011;7766;51.534;6.722;2022-08-25T03:54:59;5.93;;;3.90;;
15331;SDS011;7766;51.534;6.722;2022-08-25T03:56:01;8.18;;;4.20;;
15331;SDS011;7766;51.534;6.722;2022-08-25T03:57:03;7.28;;;4.10;;
15331;SDS011;7766;51.534;6.722;2022-08-25T03:58:05;5.38;;;3.47;;
15331;SDS011;7766;51.534;6.722;2022-08-25T03:59:06;7.25;;;3.90;;
15331;SDS011;7766;51.534;6.722;2022-08-25T04:00:09;5.68;;;4.18;;
15331;SDS011;7766;51.534;6.722;2022-08-25T04:01:14;6.47;;;3.78;;
15331;SDS011;7766;51.534;6.722;2022-08-25T04:02:15;7.05;;;3.92;;
15331;SDS011;7766;51.534;6.722;2022-08-25T04:03:16;6.90;;;4.20;;
15331;SDS011;7766;51.534;6.722;2022-08-25T04:04:18;4.45;;;3.50;;
15331;SDS011;7766;51.534;6.722;2022-08-25T04:05:19;6.00;;;4.10;;
15331;SDS011;7766;51.534;6.722;2022-08-25T04:06:20;6.68;;;4.13;;
15331;SDS011;7766;51.534;6.722;2022-08-25T04:07:22;7.10;;;4.50;;
15331;SDS011;7766;51.534;6.722;2022-08-25T04:08:22;4.65;;;4.18;;
15331;SDS011;7766;51.534;6.722;2022-08-25T04:09:23;5.43;;;4.18;;
15331;SDS011;7766;51.534;6.722;2022-08-25T04:10:24;4.68;;;3.67;;
15331;SDS011;7766;51.534;6.722;2022-08-25T04:11:26;5.93;;;3.83;;
15331;SDS011;7766;51.534;6.722;2022-08-25T04:12:27;6.60;;;4.15;;
15331;SDS011;7766;51.534;6.722;2022-08-25T04:13:28;4.60;;;3.67;;
15331;SDS011;7766;51.534;6.722;2022-08-25T04:14:29;5.57;;;3.85;;
15331;SDS011;7766;51.534;6.722;2022-08-25T04:15:30;6.32;;;3.85;;
15331;SDS011;7766;51.534;6.722;2022-08-25T04:16:32;6.03;;;4.03;;
15331;SDS011;7766;51.534;6.722;2022-08-25T04:17:35;4.10;;;3.67;;
15331;SDS011;7766;51.534;6.722;2022-08-25T04:18:37;8.02;;;4.07;;
15331;SDS011;7766;51.534;6.722;2022-08-25T04:19:42;8.60;;;3.95;;
15331;SDS011;7766;51.534;6.722;2022-08-25T04:20:44;8.90;;;3.83;;
15331;SDS011;7766;51.534;6.722;2022-08-25T04:21:46;7.22;;;3.95;;
15331;SDS011;7766;51.534;6.722;2022-08-25T04:22:48;4.55;;;3.53;;
15331;SDS011;7766;51.534;6.722;2022-08-25T04:23:49;5.88;;;3.88;;
15331;SDS011;7766;51.534;6.722;2022-08-25T04:24:52;4.78;;;3.78;;
15331;SDS011;7766;51.534;6.722;2022-08-25T04:25:53;7.18;;;4.20;;
15331;SDS011;7766;51.534;6.722;2022-08-25T04:26:54;6.03;;;3.90;;
15331;SDS011;7766;51.534;6.722;2022-08-25T04:27:55;7.15;;;3.83;;
15331;SDS011;7766;51.534;6.722;2022-08-25T04:28:57;6.38;;;4.10;;
15331;SDS011;7766;51.534;6.722;2022-08-25T04:30:00;6.25;;;3.88;;
15331;SDS011;7766;51.534;6.722;2022-08-25T04:31:01;6.53;;;3.97;;
15331;SDS011;7766;51.534;6.722;2022-08-25T04:32:05;11.65;;;4.20;;
15331;SDS011;7766;51.534;6.722;2022-08-25T04:33:06;4.65;;;3.97;;
15331;SDS011;7766;51.534;6.722;2022-08-25T04:34:08;6.28;;;3.65;;
15331;SDS011;7766;51.534;6.722;2022-08-25T04:35:09;6.25;;;4.18;;
15331;SDS011;7766;51.534;6.722;2022-08-25T04:36:10;6.72;;;3.90;;
15331;SDS011;7766;51.534;6.722;2022-08-25T04:37:11;9.15;;;4.13;;
15331;SDS011;7766;51.534;6.722;2022-08-25T04:38:12;5.88;;;4.20;;
15331;SDS011;7766;51.534;6.722;2022-08-25T04:39:13;6.78;;;4.53;;
15331;SDS011;7766;51.534;6.722;2022-08-25T04:40:14;5.07;;;4.57;;
15331;SDS011;7766;51.534;6.722;2022-08-25T04:41:17;8.18;;;4.68;;
15331;SDS011;7766;51.534;6.722;2022-08-25T04:42:21;10.32;;;4.35;;
15331;SDS011;7766;51.534;6.722;2022-08-25T04:43:22;7.13;;;4.68;;
15331;SDS011;7766;51.534;6.722;2022-08-25T04:44:23;6.57;;;4.25;;
15331;SDS011;7766;51.534;6.722;2022-08-25T04:45:24;6.57;;;3.78;;
15331;SDS011;7766;51.534;6.722;2022-08-25T04:46:26;6.78;;;4.38;;
15331;SDS011;7766;51.534;6.722;2022-08-25T04:47:30;6.50;;;4.18;;
15331;SDS011;7766;51.534;6.722;2022-08-25T04:48:35;5.03;;;3.75;;
15331;SDS011;7766;51.534;6.722;2022-08-25T04:49:38;8.00;;;4.05;;
15331;SDS011;7766;51.534;6.722;2022-08-25T04:50:39;5.13;;;4.55;;
15331;SDS011;7766;51.534;6.722;2022-08-25T04:51:41;7.25;;;5.13;;
15331;SDS011;7766;51.534;6.722;2022-08-25T04:52:42;5.75;;;4.30;;
15331;SDS011;7766;51.534;6.722;2022-08-25T04:53:43;6.47;;;4.10;;
15331;SDS011;7766;51.534;6.722;2022-08-25T04:54:44;7.40;;;4.53;;
15331;SDS011;7766;51.534;6.722;2022-08-25T04:55:46;7.40;;;4.35;;
15331;SDS011;7766;51.534;6.722;2022-08-25T04:56:48;7.20;;;4.53;;
15331;SDS011;7766;51.534;6.722;2022-08-25T04:57:50;5.10;;;3.97;;
15331;SDS011;7766;51.534;6.722;2022-08-25T04:58:52;10.75;;;4.18;;
15331;SDS011;7766;51.534;6.722;2022-08-25T04:59:54;6.00;;;4.47;;
15331;SDS011;7766;51.534;6.722;2022-08-25T05:01:00;8.68;;;4.03;;
15331;SDS011;7766;51.534;6.722;2022-08-25T05:02:05;5.65;;;3.95;;
15331;SDS011;7766;51.534;6.722;2022-08-25T05:03:06;7.22;;;4.38;;
15331;SDS011;7766;51.534;6.722;2022-08-25T05:04:08;6.18;;;4.10;;
15331;SDS011;7766;51.534;6.722;2022-08-25T05:05:10;7.20;;;4.38;;
15331;SDS011;7766;51.534;6.722;2022-08-25T05:06:12;8.43;;;4.28;;
15331;SDS011;7766;51.534;6.722;2022-08-25T05:07:13;6.65;;;4.10;;
15331;SDS011;7766;51.534;6.722;2022-08-25T05:08:14;9.13;;;4.53;;
15331;SDS011;7766;51.534;6.722;2022-08-25T05:09:15;10.27;;;4.30;;
15331;SDS011;7766;51.534;6.722;2022-08-25T05:10:16;8.77;;;4.82;;
15331;SDS011;7766;51.534;6.722;2022-08-25T05:11:17;6.63;;;4.53;;
15331;SDS011;7766;51.534;6.722;2022-08-25T05:12:19;9.88;;;4.15;;
15331;SDS011;7766;51.534;6.722;2022-08-25T05:13:20;9.65;;;4.43;;
15331;SDS011;7766;51.534;6.722;2022-08-25T05:14:22;9.85;;;5.07;;
15331;SDS011;7766;51.534;6.722;2022-08-25T05:15:24;8.40;;;4.05;;
15331;SDS011;7766;51.534;6.722;2022-08-25T05:16:44;8.43;;;4.25;;
15331;SDS011;7766;51.534;6.722;2022-08-25T05:17:45;10.27;;;3.95;;
15331;SDS011;7766;51.534;6.722;2022-08-25T05:18:46;9.75;;;4.00;;
15331;SDS011;7766;51.534;6.722;2022-08-25T05:19:47;10.95;;;4.88;;
15331;SDS011;7766;51.534;6.722;2022-08-25T05:20:49;11.55;;;4.45;;
15331;SDS011;7766;51.534;6.722;2022-08-25T05:21:52;9.68;;;4.53;;
15331;SDS011;7766;51.534;6.722;2022-08-25T05:22:53;5.22;;;4.72;;
15331;SDS011;7766;51.534;6.722;2022-08-25T05:23:58;8.35;;;4.35;;
15331;SDS011;7766;51.534;6.722;2022-08-25T05:25:00;8.95;;;4.70;;
15331;SDS011;7766;51.534;6.722;2022-08-25T05:26:03;6.50;;;4.70;;
15331;SDS011;7766;51.534;6.722;2022-08-25T05:27:09;9.32;;;4.78;;
15331;SDS011;7766;51.534;6.722;2022-08-25T05:28:10;8.50;;;4.55;;
15331;SDS011;7766;51.534;6.722;2022-08-25T05:29:11;6.43;;;4.47;;
15331;SDS011;7766;51.534;6.722;2022-08-25T05:30:13;8.73;;;4.63;;
15331;SDS011;7766;51.534;6.722;2022-08-25T05:31:14;8.18;;;4.63;;
15331;SDS011;7766;51.534;6.722;2022-08-25T05:32:15;7.00;;;4.65;;
15331;SDS011;7766;51.534;6.722;2022-08-25T05:33:16;6.65;;;4.50;;
15331;SDS011;7766;51.534;6.722;2022-08-25T05:34:17;8.50;;;5.47;;
15331;SDS011;7766;51.534;6.722;2022-08-25T05:35:19;9.35;;;5.00;;
15331;SDS011;7766;51.534;6.722;2022-08-25T05:36:20;9.90;;;4.63;;
15331;SDS011;7766;51.534;6.722;2022-08-25T05:37:22;8.60;;;4.72;;
15331;SDS011;7766;51.534;6.722;2022-08-25T05:38:23;11.05;;;4.90;;
15331;SDS011;7766;51.534;6.722;2022-08-25T05:39:24;8.30;;;5.00;;
15331;SDS011;7766;51.534;6.722;2022-08-25T05:40:25;8.13;;;5.07;;
15331;SDS011;7766;51.534;6.722;2022-08-25T05:41:27;7.45;;;4.78;;
15331;SDS011;7766;51.534;6.722;2022-08-25T05:42:29;7.93;;;4.60;;
15331;SDS011;7766;51.534;6.722;2022-08-25T05:43:30;8.52;;;4.60;;
15331;SDS011;7766;51.534;6.722;2022-08-25T05:44:32;9.23;;;4.18;;
15331;SDS011;7766;51.534;6.722;2022-08-25T05:45:33;9.32;;;4.97;;
15331;SDS011;7766;51.534;6.722;2022-08-25T05:46:35;16.55;;;5.65;;
15331;SDS011;7766;51.534;6.722;2022-08-25T05:47:36;11.50;;;5.60;;
15331;SDS011;7766;51.534;6.722;2022-08-25T05:48:37;9.20;;;5.07;;
15331;SDS011;7766;51.534;6.722;2022-08-25T05:49:38;11.80;;;5.90;;
15331;SDS011;7766;51.534;6.722;2022-08-25T05:50:39;10.85;;;4.63;;
15331;SDS011;7766;51.534;6.722;2022-08-25T05:51:40;9.30;;;4.60;;
15331;SDS011;7766;51.534;6.722;2022-08-25T05:52:41;11.55;;;4.70;;
15331;SDS011;7766;51.534;6.722;2022-08-25T05:53:43;9.43;;;3.88;;
15331;SDS011;7766;51.534;6.722;2022-08-25T05:54:46;8.45;;;4.47;;
15331;SDS011;7766;51.534;6.722;2022-08-25T05:55:48;7.18;;;4.05;;
15331;SDS011;7766;51.534;6.722;2022-08-25T05:56:50;8.05;;;4.38;;
15331;SDS011;7766;51.534;6.722;2022-08-25T05:57:51;11.25;;;3.92;;
15331;SDS011;7766;51.534;6.722;2022-08-25T05:58:53;10.90;;;4.63;;
15331;SDS011;7766;51.534;6.722;2022-08-25T05:59:54;8.20;;;4.25;;
15331;SDS011;7766;51.534;6.722;2022-08-25T06:00:56;4.97;;;3.30;;
15331;SDS011;7766;51.534;6.722;2022-08-25T06:02:18;9.38;;;3.70;;
15331;SDS011;7766;51.534;6.722;2022-08-25T06:03:37;8.20;;;3.72;;
15331;SDS011;7766;51.534;6.722;2022-08-25T06:04:38;12.48;;;4.13;;
15331;SDS011;7766;51.534;6.722;2022-08-25T06:05:40;5.25;;;3.53;;
15331;SDS011;7766;51.534;6.722;2022-08-25T06:06:41;6.72;;;3.92;;
15331;SDS011;7766;51.534;6.722;2022-08-25T06:07:43;6.70;;;3.53;;
15331;SDS011;7766;51.534;6.722;2022-08-25T06:08:45;7.38;;;3.67;;
15331;SDS011;7766;51.534;6.722;2022-08-25T06:09:46;9.48;;;4.03;;
15331;SDS011;7766;51.534;6.722;2022-08-25T06:10:51;8.02;;;3.90;;
15331;SDS011;7766;51.534;6.722;2022-08-25T06:11:52;7.20;;;3.53;;
15331;SDS011;7766;51.534;6.722;2022-08-25T06:12:54;15.13;;;3.85;;
15331;SDS011;7766;51.534;6.722;2022-08-25T06:13:55;9.25;;;3.60;;
15331;SDS011;7766;51.534;6.722;2022-08-25T06:14:56;8.10;;;4.00;;
15331;SDS011;7766;51.534;6.722;2022-08-25T06:15:58;6.05;;;4.18;;
15331;SDS011;7766;51.534;6.722;2022-08-25T06:16:59;8.02;;;4.43;;
15331;SDS011;7766;51.534;6.722;2022-08-25T06:18:00;5.65;;;4.00;;
15331;SDS011;7766;51.534;6.722;2022-08-25T06:19:02;7.15;;;4.20;;
15331;SDS011;7766;51.534;6.722;2022-08-25T06:20:03;9.38;;;3.38;;
15331;SDS011;7766;51.534;6.722;2022-08-25T06:21:07;10.88;;;4.18;;
15331;SDS011;7766;51.534;6.722;2022-08-25T06:22:12;6.28;;;3.55;;
15331;SDS011;7766;51.534;6.722;2022-08-25T06:23:13;10.15;;;4.40;;
15331;SDS011;7766;51.534;6.722;2022-08-25T06:24:14;8.18;;;4.18;;
15331;SDS011;7766;51.534;6.722;2022-08-25T06:25:17;6.95;;;3.92;;